Time;durP1;ratioP1;P1;durP2;ratioP2;P2;SDS_P1;SDS_P2;PMS_P1;PMS_P2;Temp;Humidity;BMP_temperature;BMP_pressure;BME280_temperature;BME280_humidity;BME280_pressure;Samples;Min_cycle;Max_cycle;Signal;HPM_P1;HPM_P2
2021/10/13 00:01:47;;;;;;;0.40;0.30;;;;;;;4.08;93.70;101194.00;5054945;28;20454;-68
2021/10/13 00:04:14;;;;;;;0.40;0.30;;;;;;;4.06;94.42;101196.09;5054977;28;20446;-68
2021/10/13 00:06:40;;;;;;;0.40;0.30;;;;;;;3.99;94.76;101198.94;5054853;28;20466;-68
2021/10/13 00:09:07;;;;;;;0.40;0.30;;;;;;;3.97;95.11;101194.88;5054575;28;20864;-68
2021/10/13 00:11:35;;;;;;;0.40;0.30;;;;;;;3.91;95.61;101196.66;5055022;28;20824;-68
2021/10/13 00:14:01;;;;;;;0.40;0.30;;;;;;;3.96;95.15;101203.97;5054591;28;20446;-68
2021/10/13 00:16:30;;;;;;;0.40;0.30;;;;;;;3.93;95.64;101201.75;5054675;28;20461;-68
2021/10/13 00:18:56;;;;;;;0.40;0.30;;;;;;;3.94;95.96;101195.34;5054555;28;20486;-68
2021/10/13 00:21:23;;;;;;;0.40;0.30;;;;;;;3.96;96.61;101203.97;5054659;28;20478;-68
2021/10/13 00:23:49;;;;;;;0.40;0.30;;;;;;;3.98;96.21;101204.53;5054468;28;20516;-68
2021/10/13 00:26:16;;;;;;;0.40;0.30;;;;;;;4.00;96.01;101199.75;5054363;28;20492;-68
2021/10/13 00:28:44;;;;;;;0.40;0.30;;;;;;;4.05;96.03;101197.16;5054498;28;20439;-68
2021/10/13 00:31:10;;;;;;;0.40;0.30;;;;;;;4.06;96.83;101204.13;5054433;28;20446;-68
2021/10/13 00:33:37;;;;;;;0.40;0.30;;;;;;;4.02;98.34;101203.78;5054065;28;20450;-68
2021/10/13 00:36:04;;;;;;;0.40;0.30;;;;;;;4.12;98.20;101205.84;5054014;28;21013;-68
2021/10/13 00:38:30;;;;;;;0.40;0.30;;;;;;;4.21;98.07;101215.13;5054349;28;20446;-68
2021/10/13 00:40:56;;;;;;;0.40;0.30;;;;;;;4.19;98.35;101208.38;5054250;28;20446;-68
2021/10/13 00:43:23;;;;;;;0.40;0.23;;;;;;;4.23;98.43;101207.63;5053711;28;21011;-68
2021/10/13 00:45:52;;;;;;;0.40;0.30;;;;;;;4.25;98.93;101207.38;5054120;28;20466;-68
2021/10/13 00:48:18;;;;;;;0.40;0.30;;;;;;;4.31;98.47;101206.44;5054127;28;20867;-69
2021/10/13 00:50:44;;;;;;;0.40;0.30;;;;;;;4.34;98.15;101211.31;5054058;28;20450;-68
2021/10/13 00:53:11;;;;;;;0.40;0.30;;;;;;;4.37;97.46;101218.84;5054038;28;20465;-68
2021/10/13 00:55:39;;;;;;;0.40;0.30;;;;;;;4.34;97.15;101213.16;5053926;28;20449;-68
2021/10/13 00:58:05;;;;;;;0.40;0.30;;;;;;;4.28;96.90;101206.91;5053952;28;20880;-68
2021/10/13 01:00:32;;;;;;;0.40;0.30;;;;;;;4.24;97.18;101208.44;5053898;28;20447;-68
2021/10/13 01:03:11;;;;;;;0.40;0.30;;;;;;;4.18;97.43;101212.91;5053753;28;20544;-68
2021/10/13 01:06:01;;;;;;;0.40;0.20;;;;;;;4.12;96.57;101205.84;5053804;28;20422;-68
2021/10/13 01:08:35;;;;;;;0.40;0.30;;;;;;;3.98;96.03;101208.00;5053811;28;20458;-68
2021/10/13 01:11:17;;;;;;;0.40;0.30;;;;;;;3.95;96.25;101210.38;5053752;28;20426;-68
2021/10/13 01:13:56;;;;;;;0.40;0.30;;;;;;;3.94;95.41;101212.25;5053391;28;20904;-68
2021/10/13 01:16:28;;;;;;;0.40;0.30;;;;;;;3.92;95.23;101213.53;5053594;28;20454;-68
2021/10/13 01:19:02;;;;;;;0.40;0.30;;;;;;;3.89;95.65;101214.00;5053639;28;20442;-68
2021/10/13 01:21:47;;;;;;;0.40;0.30;;;;;;;3.86;95.81;101217.19;5053597;28;20439;-68
2021/10/13 01:24:27;;;;;;;0.40;0.30;;;;;;;3.88;96.12;101217.75;5053435;28;20880;-68
2021/10/13 01:27:06;;;;;;;0.40;0.20;;;;;;;3.89;96.12;101230.09;5053429;28;20466;-68
2021/10/13 01:29:37;;;;;;;0.40;0.30;;;;;;;3.84;96.36;101222.78;5052927;28;20441;-68
2021/10/13 01:32:12;;;;;;;0.40;0.30;;;;;;;3.82;96.42;101222.22;5053381;28;20429;-68
2021/10/13 01:34:43;;;;;;;0.40;0.30;;;;;;;3.83;96.65;101225.69;5053405;28;20430;-68
2021/10/13 01:37:14;;;;;;;0.40;0.30;;;;;;;3.85;96.55;101229.78;5052991;28;20812;-69
2021/10/13 01:39:45;;;;;;;0.40;0.30;;;;;;;3.87;97.35;101227.66;5053323;28;20419;-69
2021/10/13 01:42:14;;;;;;;0.40;0.40;;;;;;;3.90;99.03;101237.91;5053002;28;20458;-69
2021/10/13 01:44:46;;;;;;;0.40;0.30;;;;;;;3.93;99.29;101236.59;5053185;28;20446;-68
2021/10/13 01:47:16;;;;;;;0.40;0.30;;;;;;;3.98;99.39;101236.69;5053176;28;20532;-68
2021/10/13 01:49:43;;;;;;;0.40;0.30;;;;;;;4.00;99.20;101248.00;5053275;28;20430;-68
2021/10/13 01:52:11;;;;;;;1.17;1.07;;;;;;;4.04;99.67;101249.94;5053191;28;20449;-68
2021/10/13 01:54:40;;;;;;;48.80;34.37;;;;;;;4.04;99.27;101255.31;5053129;28;20438;-69
2021/10/13 01:57:08;;;;;;;0.40;0.30;;;;;;;4.11;98.98;101255.16;5052728;28;20473;-69
2021/10/13 01:59:39;;;;;;;0.40;0.30;;;;;;;4.15;98.75;101256.28;5052993;28;20434;-69
2021/10/13 02:02:07;;;;;;;0.40;0.30;;;;;;;4.19;98.19;101260.13;5053066;28;20453;-69
2021/10/13 02:04:39;;;;;;;0.40;0.30;;;;;;;4.17;97.75;101253.38;5052678;28;21011;-69
2021/10/13 02:07:08;;;;;;;0.40;0.30;;;;;;;4.11;97.37;101260.50;5052967;28;20469;-69
2021/10/13 02:09:35;;;;;;;0.40;0.30;;;;;;;4.13;97.15;101255.72;5052642;28;20959;-69
2021/10/13 02:12:02;;;;;;;0.40;0.30;;;;;;;3.98;96.76;101258.94;5053009;28;20442;-69
2021/10/13 02:14:30;;;;;;;0.40;0.30;;;;;;;4.01;96.99;101254.97;5052629;28;20848;-69
2021/10/13 02:16:59;;;;;;;0.40;0.30;;;;;;;3.99;97.58;101257.09;5053878;28;21097;-69
2021/10/13 02:19:29;;;;;;;0.40;0.30;;;;;;;4.08;97.28;101261.00;5052895;28;20470;-69
2021/10/13 02:21:57;;;;;;;0.40;0.30;;;;;;;3.87;96.66;101262.50;5052586;28;20975;-69
2021/10/13 02:24:26;;;;;;;0.40;0.30;;;;;;;3.79;95.71;101262.88;5052754;28;20535;-69
2021/10/13 02:26:57;;;;;;;0.40;0.30;;;;;;;3.69;95.18;101260.81;5052397;28;20964;-68
2021/10/13 02:29:23;;;;;;;0.40;0.30;;;;;;;3.60;95.67;101267.59;5052843;28;20438;-68
2021/10/13 02:31:50;;;;;;;0.40;0.30;;;;;;;3.57;95.60;101264.56;5052446;28;20952;-69
2021/10/13 02:34:16;;;;;;;0.40;0.30;;;;;;;3.59;95.32;101270.53;5052712;28;20468;-69
2021/10/13 02:36:44;;;;;;;0.40;0.30;;;;;;;3.58;94.71;101275.03;5052670;28;20469;-69
2021/10/13 02:39:11;;;;;;;0.40;0.30;;;;;;;3.49;94.78;101273.78;5052676;28;20442;-69
2021/10/13 02:41:38;;;;;;;0.40;0.30;;;;;;;3.51;95.34;101285.09;5053064;28;20908;-69
2021/10/13 02:44:06;;;;;;;0.40;0.30;;;;;;;3.51;94.33;101282.41;5056405;28;20462;-69
2021/10/13 02:46:36;;;;;;;0.40;0.30;;;;;;;3.51;94.71;101279.75;5056365;28;20462;-70
2021/10/13 02:49:11;;;;;;;0.40;0.30;;;;;;;3.55;94.52;101286.25;5056454;28;20438;-69
2021/10/13 02:51:46;;;;;;;0.40;0.30;;;;;;;3.50;93.87;101284.28;5056376;28;20426;-69
2021/10/13 02:54:20;;;;;;;0.40;0.20;;;;;;;3.53;93.88;101291.00;5056321;28;20787;-69
2021/10/13 02:56:51;;;;;;;0.40;0.30;;;;;;;3.49;94.66;101289.84;5056261;28;20464;-69
2021/10/13 02:59:22;;;;;;;0.40;0.30;;;;;;;3.46;95.56;101285.81;5056243;28;20414;-69
2021/10/13 03:01:55;;;;;;;0.40;0.30;;;;;;;3.60;96.53;101297.06;5056216;28;20426;-70
2021/10/13 03:04:26;;;;;;;0.40;0.30;;;;;;;3.71;99.06;101296.19;5055751;28;20885;-69
2021/10/13 03:06:58;;;;;;;0.40;0.30;;;;;;;3.81;99.80;101295.63;5056010;28;20469;-69
2021/10/13 03:09:29;;;;;;;0.40;0.30;;;;;;;3.91;100.00;101301.16;5056084;28;20426;-69
2021/10/13 03:11:56;;;;;;;0.40;0.30;;;;;;;3.94;100.00;101298.00;5069922;28;20502;-68
2021/10/13 03:14:25;;;;;;;0.40;0.30;;;;;;;4.01;100.00;101306.72;5075667;28;20442;-69
2021/10/13 03:16:52;;;;;;;0.40;0.30;;;;;;;4.00;100.00;101307.78;5075812;28;20461;-69
2021/10/13 03:19:19;;;;;;;0.40;0.30;;;;;;;4.01;99.86;101308.56;5075800;28;20447;-69
2021/10/13 03:21:46;;;;;;;0.40;0.30;;;;;;;4.05;99.36;101315.09;5075761;28;20449;-69
2021/10/13 03:24:15;;;;;;;0.40;0.30;;;;;;;4.04;99.00;101308.09;5075734;28;20489;-70
2021/10/13 03:26:46;;;;;;;0.40;0.30;;;;;;;4.09;99.10;101318.91;5075668;28;20469;-70
2021/10/13 03:29:12;;;;;;;0.50;0.50;;;;;;;4.14;98.76;101324.38;5075943;28;20429;-70
2021/10/13 03:31:39;;;;;;;0.40;0.30;;;;;;;4.10;97.87;101325.91;5075306;28;20881;-70
2021/10/13 03:34:05;;;;;;;0.40;0.30;;;;;;;3.98;97.30;101327.81;5075573;28;20444;-69
2021/10/13 03:36:39;;;;;;;0.40;0.30;;;;;;;3.80;97.14;101328.78;5075463;28;20461;-70
2021/10/13 03:39:05;;;;;;;0.40;0.30;;;;;;;3.76;96.10;101320.44;5075514;28;20464;-70
2021/10/13 03:41:33;;;;;;;0.40;0.30;;;;;;;3.70;96.05;101324.06;5075304;28;20448;-70
2021/10/13 03:43:59;;;;;;;0.40;0.30;;;;;;;3.72;95.89;101324.66;5075341;28;20466;-70
2021/10/13 03:46:26;;;;;;;0.40;0.30;;;;;;;3.71;95.57;101332.91;5075002;28;20982;-70
2021/10/13 03:48:53;;;;;;;0.40;0.30;;;;;;;3.68;95.89;101320.81;5075275;28;20441;-70
2021/10/13 03:51:20;;;;;;;1.20;1.10;;;;;;;3.70;95.82;101337.44;5075266;28;20440;-70
2021/10/13 03:53:47;;;;;;;0.40;0.30;;;;;;;3.65;95.15;101334.66;5074760;28;20444;-70
2021/10/13 03:56:14;;;;;;;0.40;0.30;;;;;;;3.59;95.46;101334.81;5075107;28;20461;-70
2021/10/13 03:58:43;;;;;;;0.40;0.30;;;;;;;3.61;95.83;101338.88;5075097;28;20433;-70
2021/10/13 04:01:09;;;;;;;0.40;0.30;;;;;;;3.63;95.90;101347.50;5075046;28;20433;-70
2021/10/13 04:03:36;;;;;;;0.40;0.30;;;;;;;3.57;96.18;101344.94;5074945;28;20481;-70
2021/10/13 04:06:03;;;;;;;0.40;0.30;;;;;;;3.45;95.62;101343.09;5074913;28;20834;-70
2021/10/13 04:08:29;;;;;;;0.40;0.30;;;;;;;3.50;97.03;101350.44;5074909;28;20438;-69
2021/10/13 04:10:56;;;;;;;0.40;0.30;;;;;;;3.56;97.73;101356.69;5074912;28;20445;-70
2021/10/13 04:13:22;;;;;;;0.40;0.30;;;;;;;3.62;97.38;101356.56;5074833;28;20454;-70
2021/10/13 04:15:50;;;;;;;0.40;0.30;;;;;;;3.67;97.79;101361.22;5074696;28;20461;-70
2021/10/13 04:18:16;;;;;;;0.40;0.30;;;;;;;3.71;97.77;101357.81;5074726;28;20803;-70
2021/10/13 04:20:43;;;;;;;0.40;0.30;;;;;;;3.71;97.95;101352.47;5074634;28;20438;-69
2021/10/13 04:23:09;;;;;;;0.40;0.30;;;;;;;3.78;98.14;101357.72;5074544;28;20449;-70
2021/10/13 04:25:36;;;;;;;0.40;0.30;;;;;;;3.78;98.39;101361.19;5074527;28;20445;-70
2021/10/13 04:28:02;;;;;;;0.40;0.30;;;;;;;3.81;98.84;101367.97;5074507;28;20453;-70
2021/10/13 04:30:29;;;;;;;3.60;3.30;;;;;;;3.84;99.29;101370.16;5074496;28;20494;-70
2021/10/13 04:32:57;;;;;;;0.40;0.30;;;;;;;3.84;99.52;101370.16;5074379;28;20472;-70
2021/10/13 04:35:23;;;;;;;0.40;0.30;;;;;;;3.90;99.86;101371.09;5074253;28;20441;-70
2021/10/13 04:37:50;;;;;;;0.40;0.30;;;;;;;3.95;99.67;101368.50;5074286;28;20494;-70
2021/10/13 04:40:16;;;;;;;0.40;0.30;;;;;;;3.97;99.91;101366.38;5074278;28;20438;-70
2021/10/13 04:42:43;;;;;;;0.40;0.30;;;;;;;4.03;99.06;101371.63;5073654;28;20510;-70
2021/10/13 04:45:10;;;;;;;0.40;0.30;;;;;;;3.89;97.90;101370.25;5074101;28;20481;-70
2021/10/13 04:47:36;;;;;;;0.40;0.30;;;;;;;4.00;98.57;101369.41;5074019;28;20462;-70
2021/10/13 04:50:05;;;;;;;0.40;0.30;;;;;;;4.03;98.46;101365.47;5074026;28;20445;-70
2021/10/13 04:52:32;;;;;;;0.40;0.30;;;;;;;4.02;97.97;101369.16;5074013;28;20445;-70
2021/10/13 04:54:58;;;;;;;0.40;0.30;;;;;;;4.05;98.83;101363.34;5074022;28;20452;-70
2021/10/13 04:57:25;;;;;;;0.40;0.30;;;;;;;4.06;98.16;101364.97;5073866;28;20468;-69
2021/10/13 04:59:54;;;;;;;0.40;0.30;;;;;;;4.10;97.97;101366.13;5073843;28;20461;-69
2021/10/13 05:02:21;;;;;;;0.40;0.30;;;;;;;4.01;97.59;101367.53;5073837;28;20442;-69
2021/10/13 05:04:47;;;;;;;0.40;0.30;;;;;;;4.08;97.79;101368.22;5072969;28;20484;-69
2021/10/13 05:07:16;;;;;;;0.40;0.30;;;;;;;4.00;96.81;101369.41;5073700;28;20461;-69
2021/10/13 05:09:42;;;;;;;0.40;0.30;;;;;;;4.03;97.13;101376.19;5073681;28;20456;-70
2021/10/13 05:12:09;;;;;;;0.40;0.30;;;;;;;4.05;97.43;101374.06;5073743;28;20804;-69
2021/10/13 05:14:35;;;;;;;0.40;0.30;;;;;;;4.05;97.87;101377.56;5073674;28;20433;-69
2021/10/13 05:17:02;;;;;;;0.40;0.30;;;;;;;4.06;97.94;101375.69;5073508;28;20469;-69
2021/10/13 05:19:28;;;;;;;0.40;0.30;;;;;;;4.09;98.13;101377.09;5073578;28;20441;-69
2021/10/13 05:21:55;;;;;;;0.40;0.30;;;;;;;4.10;98.39;101376.84;5073553;28;20445;-69
2021/10/13 05:24:22;;;;;;;0.40;0.30;;;;;;;4.09;97.73;101382.44;5073427;28;20485;-70
2021/10/13 05:26:49;;;;;;;0.40;0.20;;;;;;;4.05;97.51;101380.22;5073403;28;20461;-68
2021/10/13 05:29:16;;;;;;;0.40;0.30;;;;;;;4.07;97.49;101377.31;5073504;28;20445;-69
2021/10/13 05:31:42;;;;;;;0.40;0.30;;;;;;;3.93;96.95;101382.13;5073359;28;20441;-69
2021/10/13 05:34:08;;;;;;;0.40;0.30;;;;;;;3.90;97.84;101384.50;5073350;28;20444;-69
2021/10/13 05:36:35;;;;;;;0.40;0.30;;;;;;;3.95;97.14;101384.59;5073302;28;20461;-70
2021/10/13 05:39:01;;;;;;;0.40;0.30;;;;;;;3.89;96.85;101386.31;5073293;28;20800;-68
2021/10/13 05:41:29;;;;;;;0.40;0.30;;;;;;;3.93;96.46;101386.66;5072980;28;20475;-69
2021/10/13 05:43:55;;;;;;;0.40;0.30;;;;;;;3.70;95.80;101393.72;5073231;28;20469;-69
2021/10/13 05:46:22;;;;;;;0.40;0.30;;;;;;;3.52;94.81;101401.88;5073185;28;20461;-69
2021/10/13 05:48:48;;;;;;;0.40;0.30;;;;;;;3.44;95.27;101408.41;5073463;28;20452;-68
2021/10/13 05:51:15;;;;;;;0.40;0.30;;;;;;;3.41;95.67;101411.56;5072864;28;20965;-69
2021/10/13 05:53:41;;;;;;;0.40;0.30;;;;;;;3.29;95.33;101414.22;5072837;28;20866;-69
2021/10/13 05:56:08;;;;;;;0.40;0.30;;;;;;;3.21;95.52;101421.78;5073071;28;20812;-68
2021/10/13 05:58:38;;;;;;;0.40;0.30;;;;;;;3.25;96.60;101426.44;5073125;28;20467;-68
2021/10/13 06:01:04;;;;;;;0.40;0.30;;;;;;;3.42;96.76;101428.44;5073341;28;20437;-68
2021/10/13 06:03:31;;;;;;;0.40;0.30;;;;;;;3.54;96.94;101437.25;5072990;28;20439;-68
2021/10/13 06:05:57;;;;;;;0.40;0.30;;;;;;;3.63;97.38;101432.38;5072930;28;20488;-67
2021/10/13 06:08:24;;;;;;;0.40;0.30;;;;;;;3.67;97.02;101437.03;5073135;28;20446;-68
2021/10/13 06:10:50;;;;;;;0.40;0.30;;;;;;;3.68;97.17;101444.03;5072648;28;20449;-68
2021/10/13 06:13:17;;;;;;;0.40;0.30;;;;;;;3.69;97.11;101451.03;5072650;28;20823;-69
2021/10/13 06:15:48;;;;;;;0.40;0.30;;;;;;;3.72;97.14;101458.59;5073740;28;20453;-68
2021/10/13 06:18:14;;;;;;;0.40;0.30;;;;;;;3.69;96.96;101463.59;5076771;28;20460;-69
2021/10/13 06:20:40;;;;;;;0.40;0.30;;;;;;;3.76;96.91;101470.47;5076960;28;20445;-69
2021/10/13 06:23:07;;;;;;;2.30;2.20;;;;;;;3.79;97.18;101466.50;5075016;28;20954;-69
2021/10/13 06:25:34;;;;;;;0.40;0.30;;;;;;;3.79;97.81;101474.53;5056392;28;21011;-68
2021/10/13 06:28:00;;;;;;;0.40;0.30;;;;;;;3.84;97.06;101474.66;5056801;28;20442;-68
2021/10/13 06:30:28;;;;;;;0.40;0.30;;;;;;;3.78;97.24;101473.72;5056888;28;20453;-69
2021/10/13 06:32:56;;;;;;;0.40;0.30;;;;;;;3.81;97.29;101472.47;5056749;28;20445;-68
2021/10/13 06:35:22;;;;;;;0.40;0.30;;;;;;;3.77;98.04;101480.16;5056747;28;20548;-68
2021/10/13 06:37:49;;;;;;;0.40;0.30;;;;;;;3.85;97.72;101475.47;5056673;28;20856;-69
2021/10/13 06:40:16;;;;;;;0.40;0.30;;;;;;;3.87;97.53;101479.56;5056619;28;20495;-69
2021/10/13 06:42:42;;;;;;;0.40;0.30;;;;;;;3.90;97.48;101479.09;5056289;28;20466;-68
2021/10/13 06:45:09;;;;;;;0.40;0.30;;;;;;;3.98;97.89;101491.31;5056152;28;20488;-68
2021/10/13 06:47:36;;;;;;;1.77;1.67;;;;;;;4.05;99.17;101479.41;5056386;28;20486;-70
2021/10/13 06:50:05;;;;;;;0.40;0.30;;;;;;;4.20;100.00;101483.47;5056455;28;20442;-69
2021/10/13 06:52:32;;;;;;;0.40;0.20;;;;;;;4.33;100.00;101496.59;5056328;28;20464;-69
2021/10/13 06:54:58;;;;;;;0.40;0.30;;;;;;;4.32;100.00;101492.31;5056039;28;20997;-69
2021/10/13 06:57:25;;;;;;;0.40;0.30;;;;;;;4.41;100.00;101498.13;5056267;28;20462;-69
2021/10/13 06:59:51;;;;;;;0.40;0.30;;;;;;;4.55;100.00;101500.28;5056207;28;20442;-68
2021/10/13 07:02:18;;;;;;;0.40;0.30;;;;;;;4.72;100.00;101500.34;5055917;28;20450;-70
2021/10/13 07:04:44;;;;;;;0.40;0.30;;;;;;;4.80;100.00;101510.69;5056094;28;20484;-71
2021/10/13 07:07:12;;;;;;;0.40;0.30;;;;;;;4.92;100.00;101509.84;5055773;28;20994;-71
2021/10/13 07:09:39;;;;;;;0.40;0.23;;;;;;;5.06;100.00;101506.63;5056159;28;20815;-70
2021/10/13 07:12:06;;;;;;;0.40;0.30;;;;;;;5.14;100.00;101513.47;5056038;28;20442;-69
2021/10/13 07:14:32;;;;;;;0.40;0.30;;;;;;;5.21;100.00;101503.38;5056001;28;20442;-69
2021/10/13 07:16:59;;;;;;;0.40;0.30;;;;;;;5.23;100.00;101503.97;5056047;28;20469;-69
2021/10/13 07:19:25;;;;;;;0.40;0.30;;;;;;;5.23;100.00;101511.22;5065343;28;20461;-69
2021/10/13 07:21:52;;;;;;;0.40;0.30;;;;;;;5.29;100.00;101511.03;5075753;28;20445;-69
2021/10/13 07:24:20;;;;;;;0.40;0.30;;;;;;;5.37;100.00;101509.03;5075826;28;20532;-69
2021/10/13 07:26:47;;;;;;;0.40;0.20;;;;;;;5.42;100.00;101512.59;5075564;28;20468;-69
2021/10/13 07:29:13;;;;;;;0.40;0.30;;;;;;;5.45;100.00;101509.44;5074751;28;20442;-69
2021/10/13 07:31:40;;;;;;;0.40;0.30;;;;;;;5.52;100.00;101506.56;5075756;28;20464;-69
2021/10/13 07:34:07;;;;;;;0.40;0.30;;;;;;;5.53;100.00;101522.47;5075637;28;20531;-69
2021/10/13 07:36:33;;;;;;;1.30;1.20;;;;;;;5.63;100.00;101516.44;5075587;28;20492;-69
2021/10/13 07:39:00;;;;;;;0.40;0.30;;;;;;;5.75;100.00;101521.72;5075207;28;20444;-69
2021/10/13 07:41:28;;;;;;;0.40;0.30;;;;;;;5.87;100.00;101518.94;5075247;28;20441;-69
2021/10/13 07:43:55;;;;;;;0.63;0.57;;;;;;;5.96;100.00;101528.25;5075550;28;20426;-70
2021/10/13 07:46:23;;;;;;;0.40;0.30;;;;;;;6.11;100.00;101520.41;5075001;28;20610;-70
2021/10/13 07:48:49;;;;;;;0.40;0.30;;;;;;;6.29;100.00;101525.50;5075326;28;20476;-69
2021/10/13 07:51:16;;;;;;;0.40;0.30;;;;;;;6.46;100.00;101522.75;5075025;28;20448;-69
2021/10/13 07:53:42;;;;;;;0.40;0.30;;;;;;;6.58;100.00;101519.91;5075209;28;20532;-68
2021/10/13 07:56:09;;;;;;;0.40;0.30;;;;;;;6.83;100.00;101527.50;5075111;28;20465;-68
2021/10/13 07:58:37;;;;;;;0.40;0.30;;;;;;;7.06;100.00;101527.19;5075176;28;20440;-68
2021/10/13 08:01:03;;;;;;;0.40;0.30;;;;;;;7.24;100.00;101527.91;5075078;28;20924;-68
2021/10/13 08:03:30;;;;;;;0.40;0.20;;;;;;;7.35;100.00;101537.72;5075015;28;20845;-68
2021/10/13 08:05:56;;;;;;;0.40;0.27;;;;;;;7.52;100.00;101532.19;5074866;28;20496;-68
2021/10/13 08:08:22;;;;;;;0.40;0.20;;;;;;;7.56;100.00;101525.22;5074950;28;20441;-68
2021/10/13 08:10:49;;;;;;;3.13;2.93;;;;;;;7.75;100.00;101534.53;5074888;28;20440;-68
2021/10/13 08:13:15;;;;;;;0.40;0.30;;;;;;;7.88;100.00;101538.69;5074878;28;20449;-68
2021/10/13 08:15:43;;;;;;;0.40;0.30;;;;;;;8.06;99.75;101538.25;5074769;28;20460;-68
2021/10/13 08:18:09;;;;;;;0.40;0.30;;;;;;;8.12;98.55;101538.28;5076134;28;20859;-68
2021/10/13 08:20:36;;;;;;;0.40;0.30;;;;;;;8.20;97.16;101541.31;5074727;28;20444;-68
2021/10/13 08:23:02;;;;;;;0.40;0.30;;;;;;;8.16;96.36;101542.91;5074704;28;20445;-68
2021/10/13 08:25:29;;;;;;;0.40;0.27;;;;;;;8.27;96.21;101546.47;5074448;28;20517;-68
2021/10/13 08:27:55;;;;;;;0.40;0.30;;;;;;;8.31;95.81;101556.47;5074553;28;20854;-68
2021/10/13 08:30:22;;;;;;;0.40;0.30;;;;;;;8.31;95.54;101563.75;5074208;28;20789;-68
2021/10/13 08:32:49;;;;;;;0.40;0.30;;;;;;;8.38;95.36;101550.06;5074457;28;20442;-68
2021/10/13 08:35:16;;;;;;;0.40;0.30;;;;;;;8.48;94.99;101560.91;5074112;28;20953;-68
2021/10/13 08:37:42;;;;;;;0.40;0.30;;;;;;;8.53;94.65;101556.34;5074275;28;20461;-68
2021/10/13 08:40:11;;;;;;;0.40;0.30;;;;;;;8.67;94.67;101556.66;5074307;28;20822;-68
2021/10/13 08:42:50;;;;;;;0.40;0.30;;;;;;;8.80;94.27;101568.88;5073932;28;20539;-68
2021/10/13 08:45:17;;;;;;;0.40;0.30;;;;;;;8.87;93.08;101565.94;5074163;28;20497;-68
2021/10/13 08:47:44;;;;;;;0.40;0.30;;;;;;;8.82;92.65;101566.72;5074020;28;20887;-68
2021/10/13 08:50:11;;;;;;;0.40;0.30;;;;;;;8.87;93.82;101576.75;5074107;28;20445;-68
2021/10/13 08:52:38;;;;;;;0.50;0.40;;;;;;;8.95;93.31;101573.53;5074086;28;20441;-68
2021/10/13 08:55:04;;;;;;;0.40;0.30;;;;;;;9.08;91.85;101581.13;5073728;28;20444;-68
2021/10/13 08:57:31;;;;;;;0.40;0.20;;;;;;;9.10;91.22;101576.25;5074007;28;20495;-68
2021/10/13 08:59:57;;;;;;;0.40;0.30;;;;;;;9.20;91.70;101581.69;5074007;28;20444;-68
2021/10/13 09:02:38;;;;;;;0.40;0.27;;;;;;;9.29;91.08;101585.50;5073904;28;20445;-68
2021/10/13 09:05:10;;;;;;;0.40;0.30;;;;;;;9.37;90.31;101591.47;5073759;28;20468;-68
2021/10/13 09:07:39;;;;;;;0.40;0.30;;;;;;;9.42;89.95;101588.75;5073752;28;20934;-69
2021/10/13 09:10:06;;;;;;;0.40;0.30;;;;;;;9.45;89.31;101582.81;5073769;28;20441;-69
2021/10/13 09:12:35;;;;;;;0.40;0.30;;;;;;;9.45;89.86;101583.63;5073418;28;20981;-69
2021/10/13 09:15:12;;;;;;;0.40;0.30;;;;;;;9.59;90.22;101594.72;5073693;28;20854;-69
2021/10/13 09:17:54;;;;;;;0.40;0.30;;;;;;;9.64;88.67;101592.03;5073560;28;20456;-68
2021/10/13 09:20:23;;;;;;;0.40;0.30;;;;;;;9.70;88.15;101590.97;5073594;28;20449;-68
2021/10/13 09:23:03;;;;;;;0.40;0.30;;;;;;;9.77;87.77;101590.69;5073515;28;20810;-69
2021/10/13 09:25:30;;;;;;;0.40;0.30;;;;;;;9.73;86.42;101593.09;5073397;28;20472;-70
2021/10/13 09:27:58;;;;;;;0.40;0.30;;;;;;;9.80;86.84;101596.38;5073497;28;20454;-70
2021/10/13 09:30:30;;;;;;;0.40;0.30;;;;;;;9.82;86.46;101587.97;5073454;28;20524;-70
2021/10/13 09:33:09;;;;;;;0.40;0.30;;;;;;;9.81;86.07;101589.88;5073333;28;20452;-70
2021/10/13 09:35:35;;;;;;;0.40;0.30;;;;;;;9.73;85.17;101595.00;5073315;28;20433;-69
2021/10/13 09:38:03;;;;;;;3.23;1.60;;;;;;;9.66;86.25;101594.47;5073347;28;20441;-69
2021/10/13 09:40:31;;;;;;;0.40;0.30;;;;;;;9.57;86.93;101600.41;5073336;28;20847;-69
2021/10/13 09:42:59;;;;;;;0.40;0.30;;;;;;;9.56;87.74;101589.84;5072956;28;20456;-69
2021/10/13 09:45:27;;;;;;;0.40;0.30;;;;;;;9.59;88.17;101597.44;5073078;28;20550;-71
2021/10/13 09:47:58;;;;;;;0.40;0.30;;;;;;;9.73;88.05;101601.22;5073186;28;20472;-70
2021/10/13 09:50:39;;;;;;;0.40;0.30;;;;;;;9.84;87.92;101600.16;5072870;28;20856;-70
2021/10/13 09:53:16;;;;;;;0.40;0.30;;;;;;;9.94;86.51;101598.53;5072743;28;20489;-70
2021/10/13 09:55:43;;;;;;;0.40;0.30;;;;;;;9.98;85.28;101613.16;5072592;28;20417;-70
2021/10/13 09:58:22;;;;;;;0.40;0.30;;;;;;;10.04;84.77;101612.84;5053599;28;20926;-70
2021/10/13 10:00:48;;;;;;;0.40;0.30;;;;;;;10.04;85.22;101612.06;5052358;28;20426;-70
2021/10/13 10:03:16;;;;;;;0.40;0.30;;;;;;;10.11;85.25;101615.31;5052406;28;20438;-69
2021/10/13 10:05:43;;;;;;;0.40;0.30;;;;;;;10.18;85.36;101618.56;5052206;28;20521;-69
2021/10/13 10:08:11;;;;;;;0.40;0.30;;;;;;;10.24;85.52;101622.06;5052394;28;20449;-68
2021/10/13 10:11:03;;;;;;;0.40;0.30;;;;;;;10.35;84.84;101612.84;5052404;28;20492;-68
2021/10/13 10:13:36;;;;;;;0.40;0.30;;;;;;;10.43;84.79;101609.59;5052427;28;20431;-68
2021/10/13 10:16:03;;;;;;;0.40;0.30;;;;;;;10.47;84.86;101613.38;5052228;28;20508;-68
2021/10/13 10:18:32;;;;;;;0.40;0.30;;;;;;;10.59;83.99;101615.78;5052033;28;20442;-68
2021/10/13 10:21:18;;;;;;;0.40;0.30;;;;;;;10.55;83.49;101617.44;5052451;28;20503;-68
2021/10/13 10:23:46;;;;;;;0.40;0.30;;;;;;;10.66;83.62;101613.59;5051476;28;20450;-68
2021/10/13 10:26:43;;;;;;;0.40;0.27;;;;;;;10.80;82.16;101611.94;5051861;28;20535;-68
2021/10/13 10:29:14;;;;;;;0.40;0.30;;;;;;;10.84;82.29;101607.53;4990591;28;20425;-68
2021/10/13 10:31:42;;;;;;;0.40;0.30;;;;;;;10.98;82.34;101615.91;5039306;28;20465;-68
2021/10/13 10:34:20;;;;;;;0.40;0.30;;;;;;;11.13;81.29;101609.59;5052361;28;20446;-68
2021/10/13 10:37:09;;;;;;;0.40;0.30;;;;;;;11.22;80.51;101607.91;5052217;28;20454;-68
2021/10/13 10:39:58;;;;;;;0.40;0.30;;;;;;;11.35;79.65;101614.63;5052188;28;20449;-68
2021/10/13 10:42:45;;;;;;;0.40;0.30;;;;;;;11.45;78.88;101619.19;5051814;28;20470;-68
2021/10/13 10:45:15;;;;;;;0.40;0.30;;;;;;;11.46;79.34;101610.75;5051833;28;20826;-68
2021/10/13 10:47:50;;;;;;;0.40;0.30;;;;;;;11.52;79.88;101611.53;5051748;28;20466;-68
2021/10/13 10:50:32;;;;;;;0.40;0.30;;;;;;;11.71;77.61;101615.19;5051758;28;20533;-68
2021/10/13 10:53:12;;;;;;;0.40;0.30;;;;;;;11.81;77.53;101622.44;5051724;28;20897;-68
2021/10/13 10:55:40;;;;;;;0.40;0.30;;;;;;;11.91;76.80;101621.56;5051823;28;20460;-68
2021/10/13 10:58:17;;;;;;;0.40;0.30;;;;;;;11.80;77.43;101624.34;5051985;28;20442;-68
2021/10/13 11:00:44;;;;;;;0.40;0.30;;;;;;;11.92;76.79;101623.22;5051869;28;20441;-68
2021/10/13 11:03:19;;;;;;;0.40;0.30;;;;;;;12.16;77.83;101618.63;5053168;28;20446;-68
2021/10/13 11:05:45;;;;;;;0.50;0.30;;;;;;;12.60;73.83;101625.81;5055057;28;20513;-68
2021/10/13 11:08:13;;;;;;;0.40;0.30;;;;;;;13.20;71.98;101620.72;5055265;28;20940;-68
2021/10/13 11:10:39;;;;;;;0.40;0.30;;;;;;;14.17;68.40;101623.88;5055501;28;20446;-68
2021/10/13 11:13:06;;;;;;;0.40;0.30;;;;;;;14.94;63.48;101624.03;5073494;28;20461;-68
2021/10/13 11:15:36;;;;;;;0.40;0.30;;;;;;;15.34;61.24;101630.53;5075187;28;20445;-68
2021/10/13 11:18:11;;;;;;;0.40;0.30;;;;;;;15.91;60.58;101635.53;5075327;28;20447;-68
2021/10/13 11:20:37;;;;;;;0.40;0.30;;;;;;;16.36;57.93;101639.00;5075254;28;20436;-68
2021/10/13 11:23:05;;;;;;;0.40;0.30;;;;;;;16.33;58.60;101636.88;5075195;28;20447;-69
2021/10/13 11:25:34;;;;;;;0.40;0.20;;;;;;;17.05;56.06;101640.44;5075311;28;20445;-70
2021/10/13 11:28:02;;;;;;;0.40;0.30;;;;;;;17.40;55.65;101647.56;5075289;28;20437;-68
2021/10/13 11:30:31;;;;;;;0.40;0.30;;;;;;;17.27;54.57;101642.25;5075118;28;20449;-70
2021/10/13 11:33:00;;;;;;;0.50;0.30;;;;;;;17.78;54.43;101626.94;5075074;28;20445;-70
2021/10/13 11:35:26;;;;;;;0.40;0.30;;;;;;;17.82;52.96;101639.69;5074885;28;20806;-69
2021/10/13 11:37:54;;;;;;;0.40;0.30;;;;;;;17.96;53.20;101646.94;5074694;28;20943;-70
2021/10/13 11:40:22;;;;;;;0.40;0.20;;;;;;;17.81;53.67;101645.50;5075102;28;20468;-70